sensor_id;sensor_type;location;lat;lon;timestamp;P1;durP1;ratioP1;P2;durP2;ratioP2
62030;SDS011;62035;52.094;5.112;2023-04-03T00:01:05;3.40;;;1.45;;
62030;SDS011;62035;52.094;5.112;2023-04-03T00:03:33;3.65;;;1.73;;
62030;SDS011;62035;52.094;5.112;2023-04-03T00:06:02;3.42;;;2.38;;
62030;SDS011;62035;52.094;5.112;2023-04-03T00:08:32;6.10;;;2.08;;
62030;SDS011;62035;52.094;5.112;2023-04-03T00:11:01;8.85;;;2.45;;
62030;SDS011;62035;52.094;5.112;2023-04-03T00:13:30;2.50;;;1.48;;
62030;SDS011;62035;52.094;5.112;2023-04-03T00:16:00;4.07;;;1.80;;
62030;SDS011;62035;52.094;5.112;2023-04-03T00:18:29;3.80;;;1.58;;
62030;SDS011;62035;52.094;5.112;2023-04-03T00:20:57;2.65;;;1.55;;
62030;SDS011;62035;52.094;5.112;2023-04-03T00:23:25;5.72;;;1.83;;
62030;SDS011;62035;52.094;5.112;2023-04-03T00:25:53;5.40;;;2.05;;
62030;SDS011;62035;52.094;5.112;2023-04-03T00:28:22;6.18;;;1.50;;
62030;SDS011;62035;52.094;5.112;2023-04-03T00:30:50;3.42;;;1.75;;
62030;SDS011;62035;52.094;5.112;2023-04-03T00:33:18;7.13;;;1.67;;
62030;SDS011;62035;52.094;5.112;2023-04-03T00:35:47;4.93;;;1.80;;
62030;SDS011;62035;52.094;5.112;2023-04-03T00:38:15;5.28;;;1.50;;
62030;SDS011;62035;52.094;5.112;2023-04-03T00:40:43;6.60;;;1.42;;
62030;SDS011;62035;52.094;5.112;2023-04-03T00:43:18;3.67;;;1.70;;
62030;SDS011;62035;52.094;5.112;2023-04-03T00:45:51;6.03;;;1.73;;
62030;SDS011;62035;52.094;5.112;2023-04-03T00:48:20;3.38;;;1.88;;
62030;SDS011;62035;52.094;5.112;2023-04-03T00:50:52;3.63;;;1.70;;
62030;SDS011;62035;52.094;5.112;2023-04-03T00:53:22;2.75;;;1.63;;
62030;SDS011;62035;52.094;5.112;2023-04-03T00:55:54;5.07;;;1.65;;
62030;SDS011;62035;52.094;5.112;2023-04-03T00:58:27;5.07;;;1.63;;
62030;SDS011;62035;52.094;5.112;2023-04-03T01:01:02;3.28;;;1.63;;
62030;SDS011;62035;52.094;5.112;2023-04-03T01:03:36;3.58;;;1.52;;
62030;SDS011;62035;52.094;5.112;2023-04-03T01:06:05;3.47;;;1.50;;
62030;SDS011;62035;52.094;5.112;2023-04-03T01:08:33;4.10;;;1.67;;
62030;SDS011;62035;52.094;5.112;2023-04-03T01:11:02;3.10;;;1.50;;
62030;SDS011;62035;52.094;5.112;2023-04-03T01:13:32;4.47;;;1.80;;
62030;SDS011;62035;52.094;5.112;2023-04-03T01:16:01;2.95;;;1.50;;
62030;SDS011;62035;52.094;5.112;2023-04-03T01:18:30;3.70;;;1.45;;
62030;SDS011;62035;52.094;5.112;2023-04-03T01:21:23;4.63;;;1.60;;
62030;SDS011;62035;52.094;5.112;2023-04-03T01:24:22;2.92;;;1.50;;
62030;SDS011;62035;52.094;5.112;2023-04-03T01:27:00;2.45;;;1.38;;
62030;SDS011;62035;52.094;5.112;2023-04-03T01:29:33;2.78;;;1.48;;
62030;SDS011;62035;52.094;5.112;2023-04-03T01:32:02;3.78;;;1.70;;
62030;SDS011;62035;52.094;5.112;2023-04-03T01:34:30;4.72;;;2.08;;
62030;SDS011;62035;52.094;5.112;2023-04-03T01:36:59;4.15;;;1.98;;
62030;SDS011;62035;52.094;5.112;2023-04-03T01:39:26;4.72;;;1.88;;
62030;SDS011;62035;52.094;5.112;2023-04-03T01:41:54;6.93;;;1.60;;
62030;SDS011;62035;52.094;5.112;2023-04-03T01:44:21;4.03;;;1.92;;
62030;SDS011;62035;52.094;5.112;2023-04-03T01:46:49;4.63;;;1.95;;
62030;SDS011;62035;52.094;5.112;2023-04-03T01:49:18;2.88;;;1.60;;
62030;SDS011;62035;52.094;5.112;2023-04-03T01:51:46;7.15;;;1.63;;
62030;SDS011;62035;52.094;5.112;2023-04-03T01:54:13;5.28;;;2.25;;
62030;SDS011;62035;52.094;5.112;2023-04-03T01:56:41;3.55;;;1.80;;
62030;SDS011;62035;52.094;5.112;2023-04-03T01:59:08;3.13;;;1.58;;
62030;SDS011;62035;52.094;5.112;2023-04-03T02:01:36;4.40;;;1.80;;
62030;SDS011;62035;52.094;5.112;2023-04-03T02:04:04;4.97;;;1.67;;
62030;SDS011;62035;52.094;5.112;2023-04-03T02:06:33;3.42;;;1.65;;
62030;SDS011;62035;52.094;5.112;2023-04-03T02:09:01;2.33;;;1.45;;
62030;SDS011;62035;52.094;5.112;2023-04-03T02:11:28;2.67;;;1.63;;
62030;SDS011;62035;52.094;5.112;2023-04-03T02:13:56;5.13;;;1.90;;
62030;SDS011;62035;52.094;5.112;2023-04-03T02:16:24;5.88;;;1.60;;
62030;SDS011;62035;52.094;5.112;2023-04-03T02:18:51;5.78;;;2.00;;
62030;SDS011;62035;52.094;5.112;2023-04-03T02:21:19;5.30;;;1.80;;
62030;SDS011;62035;52.094;5.112;2023-04-03T02:23:48;7.00;;;1.90;;
62030;SDS011;62035;52.094;5.112;2023-04-03T02:26:16;2.50;;;1.50;;
62030;SDS011;62035;52.094;5.112;2023-04-03T02:28:44;6.07;;;1.92;;
62030;SDS011;62035;52.094;5.112;2023-04-03T02:31:12;5.80;;;1.80;;
62030;SDS011;62035;52.094;5.112;2023-04-03T02:33:40;6.28;;;2.13;;
62030;SDS011;62035;52.094;5.112;2023-04-03T02:36:07;3.83;;;1.67;;
62030;SDS011;62035;52.094;5.112;2023-04-03T02:38:35;5.10;;;1.73;;
62030;SDS011;62035;52.094;5.112;2023-04-03T02:41:05;3.28;;;1.90;;
62030;SDS011;62035;52.094;5.112;2023-04-03T02:43:34;6.03;;;1.80;;
62030;SDS011;62035;52.094;5.112;2023-04-03T02:46:02;4.43;;;1.85;;
62030;SDS011;62035;52.094;5.112;2023-04-03T02:48:31;3.03;;;1.60;;
62030;SDS011;62035;52.094;5.112;2023-04-03T02:50:58;5.32;;;1.70;;
62030;SDS011;62035;52.094;5.112;2023-04-03T02:53:26;3.78;;;1.55;;
62030;SDS011;62035;52.094;5.112;2023-04-03T02:55:54;4.55;;;1.55;;
62030;SDS011;62035;52.094;5.112;2023-04-03T02:58:23;4.07;;;1.70;;
62030;SDS011;62035;52.094;5.112;2023-04-03T03:00:51;4.60;;;1.90;;
62030;SDS011;62035;52.094;5.112;2023-04-03T03:03:18;5.47;;;2.10;;
62030;SDS011;62035;52.094;5.112;2023-04-03T03:05:46;6.25;;;1.85;;
62030;SDS011;62035;52.094;5.112;2023-04-03T03:08:14;5.18;;;1.92;;
62030;SDS011;62035;52.094;5.112;2023-04-03T03:10:41;3.20;;;1.50;;
62030;SDS011;62035;52.094;5.112;2023-04-03T03:13:09;3.40;;;1.77;;
62030;SDS011;62035;52.094;5.112;2023-04-03T03:15:38;5.40;;;2.00;;
62030;SDS011;62035;52.094;5.112;2023-04-03T03:18:05;5.25;;;1.77;;
62030;SDS011;62035;52.094;5.112;2023-04-03T03:20:33;3.33;;;1.67;;
62030;SDS011;62035;52.094;5.112;2023-04-03T03:23:01;4.57;;;2.20;;
62030;SDS011;62035;52.094;5.112;2023-04-03T03:25:28;4.63;;;1.95;;
62030;SDS011;62035;52.094;5.112;2023-04-03T03:27:56;4.70;;;1.80;;
62030;SDS011;62035;52.094;5.112;2023-04-03T03:30:24;3.28;;;1.50;;
62030;SDS011;62035;52.094;5.112;2023-04-03T03:32:53;7.70;;;2.17;;
62030;SDS011;62035;52.094;5.112;2023-04-03T03:35:20;3.25;;;1.83;;
62030;SDS011;62035;52.094;5.112;2023-04-03T03:37:49;6.13;;;2.20;;
62030;SDS011;62035;52.094;5.112;2023-04-03T03:40:16;2.35;;;1.60;;
62030;SDS011;62035;52.094;5.112;2023-04-03T03:42:44;5.20;;;1.73;;
62030;SDS011;62035;52.094;5.112;2023-04-03T03:45:12;3.80;;;1.73;;
62030;SDS011;62035;52.094;5.112;2023-04-03T03:47:40;3.47;;;1.80;;
62030;SDS011;62035;52.094;5.112;2023-04-03T03:50:09;4.38;;;1.77;;
62030;SDS011;62035;52.094;5.112;2023-04-03T03:52:37;6.55;;;2.30;;
62030;SDS011;62035;52.094;5.112;2023-04-03T03:55:05;4.43;;;1.88;;
62030;SDS011;62035;52.094;5.112;2023-04-03T03:57:33;6.43;;;2.00;;
62030;SDS011;62035;52.094;5.112;2023-04-03T04:00:01;3.63;;;1.77;;
62030;SDS011;62035;52.094;5.112;2023-04-03T04:02:29;8.27;;;2.10;;
62030;SDS011;62035;52.094;5.112;2023-04-03T04:04:57;4.25;;;2.00;;
62030;SDS011;62035;52.094;5.112;2023-04-03T04:07:26;6.05;;;1.88;;
62030;SDS011;62035;52.094;5.112;2023-04-03T04:09:55;4.75;;;2.15;;
62030;SDS011;62035;52.094;5.112;2023-04-03T04:12:22;5.28;;;2.33;;
62030;SDS011;62035;52.094;5.112;2023-04-03T04:14:50;4.82;;;1.80;;
62030;SDS011;62035;52.094;5.112;2023-04-03T04:17:17;5.82;;;1.80;;
62030;SDS011;62035;52.094;5.112;2023-04-03T04:19:45;5.22;;;1.98;;
62030;SDS011;62035;52.094;5.112;2023-04-03T04:22:13;6.43;;;2.20;;
62030;SDS011;62035;52.094;5.112;2023-04-03T04:24:42;6.07;;;2.05;;
62030;SDS011;62035;52.094;5.112;2023-04-03T04:27:09;4.00;;;1.80;;
62030;SDS011;62035;52.094;5.112;2023-04-03T04:29:37;3.78;;;1.83;;
62030;SDS011;62035;52.094;5.112;2023-04-03T04:32:05;4.32;;;2.17;;
62030;SDS011;62035;52.094;5.112;2023-04-03T04:34:32;6.28;;;2.50;;
62030;SDS011;62035;52.094;5.112;2023-04-03T04:37:00;8.63;;;2.88;;
62030;SDS011;62035;52.094;5.112;2023-04-03T04:39:27;7.22;;;2.35;;
62030;SDS011;62035;52.094;5.112;2023-04-03T04:41:57;5.97;;;2.10;;
62030;SDS011;62035;52.094;5.112;2023-04-03T04:44:24;4.55;;;1.88;;
62030;SDS011;62035;52.094;5.112;2023-04-03T04:46:52;5.63;;;2.10;;
62030;SDS011;62035;52.094;5.112;2023-04-03T04:49:20;6.15;;;2.08;;
62030;SDS011;62035;52.094;5.112;2023-04-03T04:51:47;3.92;;;2.08;;
62030;SDS011;62035;52.094;5.112;2023-04-03T04:54:15;7.35;;;2.65;;
62030;SDS011;62035;52.094;5.112;2023-04-03T04:56:43;5.68;;;2.45;;
62030;SDS011;62035;52.094;5.112;2023-04-03T04:59:12;3.80;;;2.00;;
62030;SDS011;62035;52.094;5.112;2023-04-03T05:01:39;7.32;;;2.50;;
62030;SDS011;62035;52.094;5.112;2023-04-03T05:04:07;6.15;;;2.05;;
62030;SDS011;62035;52.094;5.112;2023-04-03T05:06:34;4.18;;;2.08;;
62030;SDS011;62035;52.094;5.112;2023-04-03T05:09:02;5.18;;;2.53;;
62030;SDS011;62035;52.094;5.112;2023-04-03T05:11:30;5.82;;;2.47;;
62030;SDS011;62035;52.094;5.112;2023-04-03T05:13:58;7.22;;;2.33;;
62030;SDS011;62035;52.094;5.112;2023-04-03T05:16:27;6.88;;;2.22;;
62030;SDS011;62035;52.094;5.112;2023-04-03T05:18:55;5.68;;;2.35;;
62030;SDS011;62035;52.094;5.112;2023-04-03T05:21:22;4.18;;;2.08;;
62030;SDS011;62035;52.094;5.112;2023-04-03T05:23:51;8.27;;;2.30;;
62030;SDS011;62035;52.094;5.112;2023-04-03T05:26:19;8.55;;;2.38;;
62030;SDS011;62035;52.094;5.112;2023-04-03T05:28:47;7.28;;;2.22;;
62030;SDS011;62035;52.094;5.112;2023-04-03T05:31:15;8.18;;;2.65;;
62030;SDS011;62035;52.094;5.112;2023-04-03T05:33:44;3.75;;;2.05;;
62030;SDS011;62035;52.094;5.112;2023-04-03T05:36:12;4.28;;;2.15;;
62030;SDS011;62035;52.094;5.112;2023-04-03T05:38:40;7.93;;;2.63;;
62030;SDS011;62035;52.094;5.112;2023-04-03T05:41:08;5.60;;;2.03;;
62030;SDS011;62035;52.094;5.112;2023-04-03T05:43:35;5.78;;;2.00;;
62030;SDS011;62035;52.094;5.112;2023-04-03T05:46:07;7.13;;;2.40;;
62030;SDS011;62035;52.094;5.112;2023-04-03T05:48:38;5.45;;;2.20;;
62030;SDS011;62035;52.094;5.112;2023-04-03T05:51:09;7.38;;;2.40;;
62030;SDS011;62035;52.094;5.112;2023-04-03T05:53:43;5.35;;;2.15;;
62030;SDS011;62035;52.094;5.112;2023-04-03T05:56:12;6.40;;;2.20;;
62030;SDS011;62035;52.094;5.112;2023-04-03T05:58:40;5.65;;;2.50;;
62030;SDS011;62035;52.094;5.112;2023-04-03T06:01:07;5.07;;;2.38;;
62030;SDS011;62035;52.094;5.112;2023-04-03T06:03:35;8.30;;;2.40;;
62030;SDS011;62035;52.094;5.112;2023-04-03T06:06:04;4.18;;;2.25;;
62030;SDS011;62035;52.094;5.112;2023-04-03T06:08:35;7.30;;;2.38;;
62030;SDS011;62035;52.094;5.112;2023-04-03T06:11:02;8.27;;;2.80;;
62030;SDS011;62035;52.094;5.112;2023-04-03T06:13:30;7.82;;;2.75;;
62030;SDS011;62035;52.094;5.112;2023-04-03T06:15:59;13.10;;;3.08;;
62030;SDS011;62035;52.094;5.112;2023-04-03T06:18:26;6.90;;;2.47;;
62030;SDS011;62035;52.094;5.112;2023-04-03T06:20:54;7.45;;;2.60;;
62030;SDS011;62035;52.094;5.112;2023-04-03T06:23:21;4.93;;;2.33;;
62030;SDS011;62035;52.094;5.112;2023-04-03T06:25:50;6.50;;;2.20;;
62030;SDS011;62035;52.094;5.112;2023-04-03T06:28:18;6.97;;;2.20;;
62030;SDS011;62035;52.094;5.112;2023-04-03T06:30:46;7.72;;;2.55;;
62030;SDS011;62035;52.094;5.112;2023-04-03T06:33:13;5.38;;;2.45;;
62030;SDS011;62035;52.094;5.112;2023-04-03T06:35:41;9.85;;;2.00;;
62030;SDS011;62035;52.094;5.112;2023-04-03T06:38:08;5.47;;;2.20;;
62030;SDS011;62035;52.094;5.112;2023-04-03T06:40:36;5.57;;;2.00;;
62030;SDS011;62035;52.094;5.112;2023-04-03T06:43:06;8.68;;;2.17;;
62030;SDS011;62035;52.094;5.112;2023-04-03T06:45:34;7.32;;;2.08;;
62030;SDS011;62035;52.094;5.112;2023-04-03T06:48:02;11.25;;;2.40;;
62030;SDS011;62035;52.094;5.112;2023-04-03T06:50:29;11.82;;;2.17;;
62030;SDS011;62035;52.094;5.112;2023-04-03T06:52:57;3.72;;;1.95;;
62030;SDS011;62035;52.094;5.112;2023-04-03T06:55:24;6.05;;;2.13;;
62030;SDS011;62035;52.094;5.112;2023-04-03T06:57:52;6.55;;;2.33;;
62030;SDS011;62035;52.094;5.112;2023-04-03T07:00:21;4.60;;;1.80;;
62030;SDS011;62035;52.094;5.112;2023-04-03T07:02:50;7.85;;;2.53;;
62030;SDS011;62035;52.094;5.112;2023-04-03T07:05:18;6.38;;;2.03;;
62030;SDS011;62035;52.094;5.112;2023-04-03T07:07:46;5.32;;;2.30;;
62030;SDS011;62035;52.094;5.112;2023-04-03T07:10:13;8.88;;;1.98;;
62030;SDS011;62035;52.094;5.112;2023-04-03T07:12:41;5.22;;;1.80;;
62030;SDS011;62035;52.094;5.112;2023-04-03T07:15:09;10.07;;;2.17;;
62030;SDS011;62035;52.094;5.112;2023-04-03T07:17:40;7.28;;;2.33;;
62030;SDS011;62035;52.094;5.112;2023-04-03T07:20:08;6.35;;;2.33;;
62030;SDS011;62035;52.094;5.112;2023-04-03T07:22:36;5.60;;;1.77;;
62030;SDS011;62035;52.094;5.112;2023-04-03T07:25:04;5.13;;;1.75;;
62030;SDS011;62035;52.094;5.112;2023-04-03T07:27:33;6.25;;;2.20;;
62030;SDS011;62035;52.094;5.112;2023-04-03T07:30:01;6.55;;;1.90;;
62030;SDS011;62035;52.094;5.112;2023-04-03T07:32:29;11.43;;;2.33;;
62030;SDS011;62035;52.094;5.112;2023-04-03T07:34:58;6.18;;;1.90;;
62030;SDS011;62035;52.094;5.112;2023-04-03T07:37:26;8.05;;;1.80;;
62030;SDS011;62035;52.094;5.112;2023-04-03T07:39:53;6.35;;;1.70;;
62030;SDS011;62035;52.094;5.112;2023-04-03T07:42:22;5.80;;;1.77;;
62030;SDS011;62035;52.094;5.112;2023-04-03T07:44:50;8.93;;;2.08;;
62030;SDS011;62035;52.094;5.112;2023-04-03T07:47:18;9.82;;;2.00;;
62030;SDS011;62035;52.094;5.112;2023-04-03T07:49:46;4.50;;;2.00;;
62030;SDS011;62035;52.094;5.112;2023-04-03T07:52:15;2.90;;;1.58;;
62030;SDS011;62035;52.094;5.112;2023-04-03T07:54:42;7.47;;;1.80;;
62030;SDS011;62035;52.094;5.112;2023-04-03T07:57:10;6.47;;;1.80;;
62030;SDS011;62035;52.094;5.112;2023-04-03T07:59:38;5.93;;;1.90;;
62030;SDS011;62035;52.094;5.112;2023-04-03T08:02:07;6.15;;;1.67;;
62030;SDS011;62035;52.094;5.112;2023-04-03T08:04:36;4.47;;;1.60;;
62030;SDS011;62035;52.094;5.112;2023-04-03T08:07:04;7.57;;;2.17;;
62030;SDS011;62035;52.094;5.112;2023-04-03T08:09:33;5.15;;;2.15;;
62030;SDS011;62035;52.094;5.112;2023-04-03T08:12:01;5.28;;;1.63;;
62030;SDS011;62035;52.094;5.112;2023-04-03T08:14:30;4.18;;;1.45;;
62030;SDS011;62035;52.094;5.112;2023-04-03T08:17:00;5.35;;;1.55;;
62030;SDS011;62035;52.094;5.112;2023-04-03T08:19:30;4.47;;;1.42;;
62030;SDS011;62035;52.094;5.112;2023-04-03T08:21:58;5.88;;;1.90;;
62030;SDS011;62035;52.094;5.112;2023-04-03T08:24:26;3.17;;;1.30;;
62030;SDS011;62035;52.094;5.112;2023-04-03T08:26:55;6.97;;;1.65;;
62030;SDS011;62035;52.094;5.112;2023-04-03T08:29:23;4.63;;;1.55;;
62030;SDS011;62035;52.094;5.112;2023-04-03T08:31:51;2.88;;;1.40;;
62030;SDS011;62035;52.094;5.112;2023-04-03T08:34:19;2.92;;;1.63;;
62030;SDS011;62035;52.094;5.112;2023-04-03T08:36:47;2.80;;;1.38;;
62030;SDS011;62035;52.094;5.112;2023-04-03T08:39:15;5.57;;;1.58;;
62030;SDS011;62035;52.094;5.112;2023-04-03T08:41:44;5.65;;;1.80;;
62030;SDS011;62035;52.094;5.112;2023-04-03T08:44:16;6.15;;;1.83;;
62030;SDS011;62035;52.094;5.112;2023-04-03T08:46:56;6.50;;;1.50;;
62030;SDS011;62035;52.094;5.112;2023-04-03T08:49:39;4.28;;;1.50;;
62030;SDS011;62035;52.094;5.112;2023-04-03T08:52:13;5.05;;;1.50;;
62030;SDS011;62035;52.094;5.112;2023-04-03T08:54:48;6.57;;;1.30;;
62030;SDS011;62035;52.094;5.112;2023-04-03T08:57:20;2.50;;;1.30;;
62030;SDS011;62035;52.094;5.112;2023-04-03T08:59:59;3.88;;;1.40;;
62030;SDS011;62035;52.094;5.112;2023-04-03T09:02:34;5.45;;;1.58;;
62030;SDS011;62035;52.094;5.112;2023-04-03T09:05:11;6.40;;;1.33;;
62030;SDS011;62035;52.094;5.112;2023-04-03T09:07:43;3.05;;;1.20;;
62030;SDS011;62035;52.094;5.112;2023-04-03T09:10:18;4.30;;;1.30;;
62030;SDS011;62035;52.094;5.112;2023-04-03T09:12:57;2.42;;;1.27;;
62030;SDS011;62035;52.094;5.112;2023-04-03T09:15:35;4.35;;;1.23;;
62030;SDS011;62035;52.094;5.112;2023-04-03T09:18:04;5.05;;;1.42;;
62030;SDS011;62035;52.094;5.112;2023-04-03T09:20:44;1.90;;;1.10;;
62030;SDS011;62035;52.094;5.112;2023-04-03T09:23:22;3.25;;;1.25;;
62030;SDS011;62035;52.094;5.112;2023-04-03T09:25:58;2.30;;;0.85;;
62030;SDS011;62035;52.094;5.112;2023-04-03T09:28:32;6.63;;;1.25;;
62030;SDS011;62035;52.094;5.112;2023-04-03T09:31:10;2.30;;;1.10;;
62030;SDS011;62035;52.094;5.112;2023-04-03T09:33:47;1.40;;;0.95;;
62030;SDS011;62035;52.094;5.112;2023-04-03T09:36:38;1.52;;;1.00;;
62030;SDS011;62035;52.094;5.112;2023-04-03T09:39:10;4.45;;;1.00;;
62030;SDS011;62035;52.094;5.112;2023-04-03T09:41:41;2.80;;;1.30;;
62030;SDS011;62035;52.094;5.112;2023-04-03T09:44:24;2.50;;;1.10;;
62030;SDS011;62035;52.094;5.112;2023-04-03T09:46:55;2.10;;;1.00;;
62030;SDS011;62035;52.094;5.112;2023-04-03T09:49:23;3.80;;;1.10;;
62030;SDS011;62035;52.094;5.112;2023-04-03T09:51:51;4.88;;;1.17;;
62030;SDS011;62035;52.094;5.112;2023-04-03T09:54:30;2.47;;;1.20;;
62030;SDS011;62035;52.094;5.112;2023-04-03T09:57:06;2.95;;;1.10;;
62030;SDS011;62035;52.094;5.112;2023-04-03T09:59:41;2.70;;;1.20;;
62030;SDS011;62035;52.094;5.112;2023-04-03T10:02:32;3.35;;;1.10;;
62030;SDS011;62035;52.094;5.112;2023-04-03T10:05:03;5.10;;;1.85;;
62030;SDS011;62035;52.094;5.112;2023-04-03T10:07:53;2.30;;;1.20;;
62030;SDS011;62035;52.094;5.112;2023-04-03T10:10:48;2.50;;;1.08;;
62030;SDS011;62035;52.094;5.112;2023-04-03T10:13:35;4.32;;;1.30;;
62030;SDS011;62035;52.094;5.112;2023-04-03T10:16:16;2.58;;;1.00;;
62030;SDS011;62035;52.094;5.112;2023-04-03T10:18:57;2.15;;;1.20;;
62030;SDS011;62035;52.094;5.112;2023-04-03T10:21:48;2.75;;;1.30;;
62030;SDS011;62035;52.094;5.112;2023-04-03T10:24:25;3.55;;;1.30;;
62030;SDS011;62035;52.094;5.112;2023-04-03T10:27:04;1.52;;;0.88;;
62030;SDS011;62035;52.094;5.112;2023-04-03T10:29:39;2.40;;;1.10;;
62030;SDS011;62035;52.094;5.112;2023-04-03T10:32:18;1.95;;;1.00;;
62030;SDS011;62035;52.094;5.112;2023-04-03T10:35:06;1.85;;;1.00;;
62030;SDS011;62035;52.094;5.112;2023-04-03T10:37:47;1.90;;;1.00;;
62030;SDS011;62035;52.094;5.112;2023-04-03T10:40:29;2.75;;;1.15;;
62030;SDS011;62035;52.094;5.112;2023-04-03T10:43:06;2.10;;;0.90;;
62030;SDS011;62035;52.094;5.112;2023-04-03T10:45:51;1.85;;;1.10;;
62030;SDS011;62035;52.094;5.112;2023-04-03T10:48:40;3.28;;;1.20;;
62030;SDS011;62035;52.094;5.112;2023-04-03T10:51:27;1.20;;;0.90;;
62030;SDS011;62035;52.094;5.112;2023-04-03T10:54:05;1.88;;;1.00;;
62030;SDS011;62035;52.094;5.112;2023-04-03T10:56:40;3.38;;;0.95;;
62030;SDS011;62035;52.094;5.112;2023-04-03T10:59:14;2.08;;;0.88;;
62030;SDS011;62035;52.094;5.112;2023-04-03T11:01:50;4.13;;;1.20;;
62030;SDS011;62035;52.094;5.112;2023-04-03T11:04:23;2.55;;;0.98;;
62030;SDS011;62035;52.094;5.112;2023-04-03T11:06:59;4.32;;;1.00;;
62030;SDS011;62035;52.094;5.112;2023-04-03T11:09:34;1.50;;;0.90;;
62030;SDS011;62035;52.094;5.112;2023-04-03T11:12:06;1.92;;;0.85;;
62030;SDS011;62035;52.094;5.112;2023-04-03T11:14:43;1.17;;;0.80;;
62030;SDS011;62035;52.094;5.112;2023-04-03T11:17:22;1.63;;;1.00;;
62030;SDS011;62035;52.094;5.112;2023-04-03T11:19:59;1.98;;;1.02;;
62030;SDS011;62035;52.094;5.112;2023-04-03T11:22:42;2.92;;;1.10;;
62030;SDS011;62035;52.094;5.112;2023-04-03T11:25:15;4.28;;;0.90;;
62030;SDS011;62035;52.094;5.112;2023-04-03T11:27:51;1.52;;;0.90;;
62030;SDS011;62035;52.094;5.112;2023-04-03T11:30:24;3.15;;;1.30;;
62030;SDS011;62035;52.094;5.112;2023-04-03T11:33:03;2.00;;;1.10;;
62030;SDS011;62035;52.094;5.112;2023-04-03T11:35:57;2.10;;;0.90;;
62030;SDS011;62035;52.094;5.112;2023-04-03T11:38:31;2.17;;;1.05;;
62030;SDS011;62035;52.094;5.112;2023-04-03T11:41:07;2.78;;;1.10;;
62030;SDS011;62035;52.094;5.112;2023-04-03T11:43:40;4.05;;;1.50;;
62030;SDS011;62035;52.094;5.112;2023-04-03T11:46:22;2.55;;;1.20;;
62030;SDS011;62035;52.094;5.112;2023-04-03T11:49:13;5.03;;;1.15;;
62030;SDS011;62035;52.094;5.112;2023-04-03T11:55:47;2.95;;;1.30;;
62030;SDS011;62035;52.094;5.112;2023-04-03T11:58:28;3.17;;;1.05;;
62030;SDS011;62035;52.094;5.112;2023-04-03T12:01:00;2.72;;;1.00;;
62030;SDS011;62035;52.094;5.112;2023-04-03T12:12:39;3.90;;;1.20;;
62030;SDS011;62035;52.094;5.112;2023-04-03T12:15:23;7.03;;;1.48;;
62030;SDS011;62035;52.094;5.112;2023-04-03T12:24:40;1.75;;;1.10;;
62030;SDS011;62035;52.094;5.112;2023-04-03T12:27:15;5.65;;;1.40;;
62030;SDS011;62035;52.094;5.112;2023-04-03T12:32:34;3.97;;;1.40;;
62030;SDS011;62035;52.094;5.112;2023-04-03T12:35:16;2.95;;;1.27;;
62030;SDS011;62035;52.094;5.112;2023-04-03T12:38:11;1.80;;;1.00;;
62030;SDS011;62035;52.094;5.112;2023-04-03T12:44:11;2.33;;;1.10;;
62030;SDS011;62035;52.094;5.112;2023-04-03T12:46:57;2.88;;;1.20;;
62030;SDS011;62035;52.094;5.112;2023-04-03T12:49:33;5.50;;;1.20;;
62030;SDS011;62035;52.094;5.112;2023-04-03T12:52:06;3.15;;;1.23;;
62030;SDS011;62035;52.094;5.112;2023-04-03T12:54:49;2.35;;;1.20;;
62030;SDS011;62035;52.094;5.112;2023-04-03T12:57:18;3.45;;;1.20;;
62030;SDS011;62035;52.094;5.112;2023-04-03T12:59:50;2.40;;;1.00;;
62030;SDS011;62035;52.094;5.112;2023-04-03T13:02:23;4.78;;;1.23;;
62030;SDS011;62035;52.094;5.112;2023-04-03T13:04:54;3.40;;;1.38;;
62030;SDS011;62035;52.094;5.112;2023-04-03T13:07:26;4.38;;;1.25;;
62030;SDS011;62035;52.094;5.112;2023-04-03T13:10:00;3.53;;;1.50;;
62030;SDS011;62035;52.094;5.112;2023-04-03T13:12:45;3.00;;;1.30;;
62030;SDS011;62035;52.094;5.112;2023-04-03T13:15:16;5.45;;;1.13;;
62030;SDS011;62035;52.094;5.112;2023-04-03T13:17:49;2.40;;;1.20;;
62030;SDS011;62035;52.094;5.112;2023-04-03T13:20:20;1.85;;;1.10;;
62030;SDS011;62035;52.094;5.112;2023-04-03T13:22:53;2.40;;;1.08;;
62030;SDS011;62035;52.094;5.112;2023-04-03T13:25:30;4.43;;;1.08;;
62030;SDS011;62035;52.094;5.112;2023-04-03T13:28:07;2.30;;;1.10;;
62030;SDS011;62035;52.094;5.112;2023-04-03T13:30:53;3.33;;;1.20;;
62030;SDS011;62035;52.094;5.112;2023-04-03T13:33:30;3.75;;;1.40;;
62030;SDS011;62035;52.094;5.112;2023-04-03T13:36:04;2.35;;;1.02;;
62030;SDS011;62035;52.094;5.112;2023-04-03T13:38:42;6.45;;;1.35;;
62030;SDS011;62035;52.094;5.112;2023-04-03T13:41:22;2.72;;;1.23;;
62030;SDS011;62035;52.094;5.112;2023-04-03T13:43:55;3.90;;;1.20;;
62030;SDS011;62035;52.094;5.112;2023-04-03T13:46:24;3.72;;;1.30;;
62030;SDS011;62035;52.094;5.112;2023-04-03T13:48:56;4.40;;;1.42;;
62030;SDS011;62035;52.094;5.112;2023-04-03T13:51:24;3.63;;;1.25;;
62030;SDS011;62035;52.094;5.112;2023-04-03T13:53:56;2.42;;;1.13;;
62030;SDS011;62035;52.094;5.112;2023-04-03T13:56:29;2.63;;;1.30;;
62030;SDS011;62035;52.094;5.112;2023-04-03T13:59:06;3.88;;;1.20;;
62030;SDS011;62035;52.094;5.112;2023-04-03T14:01:52;2.70;;;1.30;;
62030;SDS011;62035;52.094;5.112;2023-04-03T14:04:44;2.40;;;1.23;;
62030;SDS011;62035;52.094;5.112;2023-04-03T14:07:18;1.88;;;1.20;;
62030;SDS011;62035;52.094;5.112;2023-04-03T14:09:47;4.15;;;1.80;;
62030;SDS011;62035;52.094;5.112;2023-04-03T14:12:16;3.40;;;1.17;;
62030;SDS011;62035;52.094;5.112;2023-04-03T14:14:51;3.80;;;1.38;;
62030;SDS011;62035;52.094;5.112;2023-04-03T14:17:20;3.17;;;1.15;;
62030;SDS011;62035;52.094;5.112;2023-04-03T14:19:53;4.03;;;1.45;;
62030;SDS011;62035;52.094;5.112;2023-04-03T14:22:24;2.92;;;1.30;;
62030;SDS011;62035;52.094;5.112;2023-04-03T14:24:54;3.40;;;1.50;;
62030;SDS011;62035;52.094;5.112;2023-04-03T14:27:24;8.20;;;1.50;;
62030;SDS011;62035;52.094;5.112;2023-04-03T14:29:55;2.15;;;1.08;;
62030;SDS011;62035;52.094;5.112;2023-04-03T14:32:26;4.57;;;1.35;;
62030;SDS011;62035;52.094;5.112;2023-04-03T14:34:55;3.10;;;1.10;;
62030;SDS011;62035;52.094;5.112;2023-04-03T14:37:25;4.15;;;1.42;;
62030;SDS011;62035;52.094;5.112;2023-04-03T14:39:57;5.35;;;1.40;;
62030;SDS011;62035;52.094;5.112;2023-04-03T14:42:29;3.25;;;1.42;;
62030;SDS011;62035;52.094;5.112;2023-04-03T14:44:59;4.95;;;1.33;;
62030;SDS011;62035;52.094;5.112;2023-04-03T14:47:30;4.75;;;1.60;;
62030;SDS011;62035;52.094;5.112;2023-04-03T14:49:59;3.50;;;1.25;;
62030;SDS011;62035;52.094;5.112;2023-04-03T14:52:32;3.97;;;1.30;;
62030;SDS011;62035;52.094;5.112;2023-04-03T14:55:03;3.03;;;1.50;;
62030;SDS011;62035;52.094;5.112;2023-04-03T14:57:32;2.65;;;1.30;;
62030;SDS011;62035;52.094;5.112;2023-04-03T15:00:01;3.22;;;1.50;;
62030;SDS011;62035;52.094;5.112;2023-04-03T15:02:31;3.13;;;1.50;;
62030;SDS011;62035;52.094;5.112;2023-04-03T15:05:02;5.03;;;1.50;;
62030;SDS011;62035;52.094;5.112;2023-04-03T15:07:34;5.18;;;1.40;;
62030;SDS011;62035;52.094;5.112;2023-04-03T15:10:14;2.85;;;1.50;;
62030;SDS011;62035;52.094;5.112;2023-04-03T15:12:46;2.88;;;1.42;;
62030;SDS011;62035;52.094;5.112;2023-04-03T15:15:15;3.72;;;1.38;;
62030;SDS011;62035;52.094;5.112;2023-04-03T15:17:47;5.63;;;1.50;;
62030;SDS011;62035;52.094;5.112;2023-04-03T15:20:22;3.55;;;1.65;;
62030;SDS011;62035;52.094;5.112;2023-04-03T15:22:52;4.93;;;1.60;;
62030;SDS011;62035;52.094;5.112;2023-04-03T15:25:21;2.85;;;1.52;;
62030;SDS011;62035;52.094;5.112;2023-04-03T15:27:49;3.60;;;1.50;;
62030;SDS011;62035;52.094;5.112;2023-04-03T15:30:18;2.65;;;1.33;;
62030;SDS011;62035;52.094;5.112;2023-04-03T15:32:46;2.72;;;1.40;;
62030;SDS011;62035;52.094;5.112;2023-04-03T15:35:14;3.85;;;1.70;;
62030;SDS011;62035;52.094;5.112;2023-04-03T15:37:44;6.25;;;1.58;;
62030;SDS011;62035;52.094;5.112;2023-04-03T15:40:12;3.65;;;1.50;;